createdAt,value
2024-01-27T00:08:23.939Z,58.33
2024-01-27T00:23:25.670Z,54.12
2024-01-27T00:38:27.474Z,54.45
2024-01-27T00:53:29.170Z,52.96
2024-01-27T01:08:30.939Z,48.67
2024-01-27T01:23:32.710Z,50.23
2024-01-27T01:38:34.400Z,48.83
2024-01-27T01:53:36.318Z,48.26
2024-01-27T02:08:38.032Z,45.64
2024-01-27T02:23:39.875Z,45.91
2024-01-27T02:38:41.680Z,45.68
2024-01-27T02:53:43.531Z,43.78
2024-01-27T03:08:45.363Z,52.34
2024-01-27T03:23:47.226Z,58.17
2024-01-27T03:38:49.136Z,67.45
2024-01-27T03:53:51.211Z,72.89
2024-01-27T04:08:53.017Z,75.16
2024-01-27T04:23:54.999Z,76.69
2024-01-27T04:38:57.180Z,78.79
2024-01-27T04:53:58.962Z,82.28
2024-01-27T05:09:00.710Z,84.84
2024-01-27T05:24:03.020Z,91.31
2024-01-27T05:39:08.118Z,90.12
2024-01-27T05:54:11.144Z,92.08
2024-01-27T06:09:13.171Z,91.51
2024-01-27T06:24:15.363Z,89.62
2024-01-27T06:39:17.165Z,86.21
2024-01-27T06:54:19.125Z,82.37
2024-01-27T07:09:21.197Z,80.11
2024-01-27T07:24:23.082Z,77.63
2024-01-27T07:39:24.979Z,76.90
2024-01-27T07:54:26.973Z,77.27
2024-01-27T08:09:28.720Z,76.35
2024-01-27T08:24:30.581Z,73.00
2024-01-27T08:39:32.394Z,71.31
2024-01-27T08:54:34.605Z,71.40
2024-01-27T09:09:39.561Z,66.23
2024-01-27T09:24:41.917Z,66.73
2024-01-27T09:39:44.106Z,66.56
2024-01-27T09:54:46.334Z,65.93
2024-01-27T10:09:50.832Z,67.88
2024-01-27T10:24:52.771Z,69.75
2024-01-27T10:40:09.033Z,70.87
2024-01-27T10:55:11.928Z,71.11
2024-01-27T11:10:13.826Z,72.18
2024-01-27T11:25:18.051Z,73.45
2024-01-27T11:40:20.035Z,74.92
2024-01-27T11:55:21.841Z,72.67
2024-01-27T12:10:23.902Z,71.88
2024-01-27T12:25:25.732Z,69.17
2024-01-27T12:40:27.527Z,68.48
2024-01-27T12:55:29.722Z,68.15
2024-01-27T13:10:31.674Z,67.17
2024-01-27T13:25:33.617Z,64.81
2024-01-27T13:40:35.413Z,63.11
2024-01-27T13:55:37.680Z,61.98
2024-01-27T14:10:41.112Z,62.60
2024-01-27T14:25:44.937Z,60.97
2024-01-27T14:40:47.730Z,60.04
2024-01-27T14:55:49.860Z,60.91
2024-01-27T15:10:51.625Z,62.87
2024-01-27T15:25:53.456Z,61.02
2024-01-27T15:40:59.044Z,61.06
2024-01-27T15:56:01.004Z,59.94
2024-01-27T16:11:02.792Z,58.78
2024-01-27T16:26:04.882Z,57.41
2024-01-27T16:41:06.677Z,58.46
2024-01-27T16:56:08.334Z,58.52
2024-01-27T17:11:10.076Z,58.74
2024-01-27T17:26:11.819Z,58.86
2024-01-27T17:41:13.557Z,59.00
2024-01-27T17:56:24.963Z,59.21
2024-01-27T18:11:26.639Z,57.75
2024-01-27T18:26:28.442Z,58.01
2024-01-27T18:41:30.198Z,58.44
2024-01-27T18:56:31.984Z,58.79
2024-01-27T19:11:34.247Z,57.62
2024-01-27T19:26:36.735Z,57.65
2024-01-27T19:41:39.171Z,58.29
2024-01-27T19:56:40.839Z,58.45
2024-01-27T20:11:42.580Z,58.55
2024-01-27T20:26:49.359Z,57.51
2024-01-27T20:41:51.102Z,57.84
2024-01-27T20:56:52.814Z,57.65
2024-01-27T21:11:54.655Z,58.37
2024-01-27T21:26:57.080Z,58.91
2024-01-27T21:41:58.798Z,58.87
2024-01-27T21:57:01.794Z,59.91
2024-01-27T22:12:05.523Z,60.35
2024-01-27T22:27:07.329Z,61.68
2024-01-27T22:42:09.105Z,61.02
2024-01-27T22:57:11.032Z,61.33
2024-01-27T23:12:14.353Z,62.02
2024-01-27T23:27:16.254Z,62.71
2024-01-27T23:42:18.309Z,62.32
2024-01-27T23:57:20.273Z,63.54
